createdAt,value
2023-04-03T00:00:36.259Z,60.33
2023-04-03T00:03:03.237Z,59.18
2023-04-03T00:05:29.872Z,59.84
2023-04-03T00:07:56.473Z,60.06
2023-04-03T00:10:23.234Z,59.58
2023-04-03T00:12:49.750Z,59.08
2023-04-03T00:15:16.647Z,59.56
2023-04-03T00:17:43.220Z,58.48
2023-04-03T00:20:10.435Z,58.72
2023-04-03T00:22:37.066Z,58.83
2023-04-03T00:25:04.349Z,58.67
2023-04-03T00:27:31.030Z,58.94
2023-04-03T00:29:57.603Z,58.56
2023-04-03T00:32:24.186Z,58.95
2023-04-03T00:34:50.976Z,58.58
2023-04-03T00:37:17.542Z,58.48
2023-04-03T00:39:44.051Z,58.80
2023-04-03T00:42:10.696Z,58.18
2023-04-03T00:44:37.131Z,58.82
2023-04-03T00:47:07.794Z,58.80
2023-04-03T00:49:35.148Z,58.19
2023-04-03T00:52:02.337Z,58.18
2023-04-03T00:54:28.977Z,58.35
2023-04-03T00:56:58.218Z,57.84
2023-04-03T00:59:31.127Z,57.86
2023-04-03T01:01:58.030Z,56.94
2023-04-03T01:04:37.086Z,58.29
2023-04-03T01:07:25.366Z,57.24
2023-04-03T01:09:56.712Z,58.04
2023-04-03T01:12:24.848Z,58.07
2023-04-03T01:14:54.518Z,58.55
2023-04-03T01:17:31.353Z,58.71
2023-04-03T01:20:36.927Z,58.56
2023-04-03T01:23:09.788Z,58.65
2023-04-03T01:25:48.780Z,58.02
2023-04-03T01:28:25.287Z,57.38
2023-04-03T01:31:36.650Z,57.36
2023-04-03T01:34:03.460Z,58.21
2023-04-03T01:36:32.401Z,57.72
2023-04-03T01:39:00.640Z,57.77
2023-04-03T01:41:28.448Z,57.39
2023-04-03T01:44:01.180Z,57.17
2023-04-03T01:46:27.873Z,56.85
2023-04-03T01:48:54.615Z,57.10
2023-04-03T01:51:21.325Z,56.38
2023-04-03T01:53:48.066Z,55.71
2023-04-03T01:56:14.582Z,57.21
2023-04-03T01:58:41.150Z,58.00
2023-04-03T02:01:07.788Z,57.52
2023-04-03T02:03:34.549Z,57.23
2023-04-03T02:06:01.138Z,57.52
2023-04-03T02:08:27.719Z,57.17
2023-04-03T02:10:54.312Z,56.61
2023-04-03T02:13:20.926Z,56.88
2023-04-03T02:15:48.617Z,55.73
2023-04-03T02:18:17.600Z,56.62
2023-04-03T02:20:44.774Z,56.43
2023-04-03T02:23:11.521Z,56.03
2023-04-03T02:25:38.847Z,56.41
2023-04-03T02:28:06.177Z,55.80
2023-04-03T02:30:32.736Z,55.43
2023-04-03T02:32:59.398Z,56.06
2023-04-03T02:35:27.072Z,55.90
2023-04-03T02:37:56.600Z,55.26
2023-04-03T02:40:23.465Z,56.08
2023-04-03T02:42:50.885Z,55.98
2023-04-03T02:45:19.053Z,55.53
2023-04-03T02:47:45.884Z,56.18
2023-04-03T02:50:12.628Z,56.16
2023-04-03T02:52:39.201Z,56.33
2023-04-03T02:55:06.788Z,56.90
2023-04-03T02:57:33.561Z,56.75
2023-04-03T03:00:00.560Z,56.87
2023-04-03T03:02:27.235Z,57.10
2023-04-03T03:04:53.791Z,56.98
2023-04-03T03:07:20.659Z,57.37
2023-04-03T03:09:47.201Z,57.09
2023-04-03T03:12:13.772Z,56.66
2023-04-03T03:14:40.449Z,56.85
2023-04-03T03:17:07.045Z,57.02
2023-04-03T03:19:34.005Z,57.31
2023-04-03T03:22:00.928Z,57.66
2023-04-03T03:24:27.457Z,58.07
2023-04-03T03:26:54.015Z,58.14
2023-04-03T03:29:20.670Z,57.13
2023-04-03T03:31:47.335Z,57.82
2023-04-03T03:34:14.071Z,57.32
2023-04-03T03:36:40.708Z,57.45
2023-04-03T03:39:07.353Z,57.25
2023-04-03T03:41:34.012Z,57.10
2023-04-03T03:44:01.305Z,56.80
2023-04-03T03:46:30.183Z,57.88
2023-04-03T03:48:56.797Z,57.65
2023-04-03T03:51:23.581Z,57.38
2023-04-03T03:53:50.552Z,58.06
2023-04-03T03:56:19.411Z,58.10
2023-04-03T03:58:46.672Z,58.16
2023-04-03T04:01:13.685Z,57.72
2023-04-03T04:03:45.068Z,58.52
2023-04-03T04:06:15.881Z,58.33
2023-04-03T04:08:43.089Z,57.92
2023-04-03T04:11:11.921Z,57.99
2023-04-03T04:13:39.555Z,58.12
2023-04-03T04:16:08.311Z,57.85
2023-04-03T04:18:35.142Z,58.60
2023-04-03T04:21:01.887Z,58.24
2023-04-03T04:23:29.014Z,58.07
2023-04-03T04:25:55.955Z,57.45
2023-04-03T04:28:24.083Z,57.80
2023-04-03T04:30:53.153Z,57.79
2023-04-03T04:33:21.633Z,58.21
2023-04-03T04:35:49.473Z,58.16
2023-04-03T04:38:18.429Z,58.44
2023-04-03T04:40:45.529Z,57.89
2023-04-03T04:43:15.245Z,56.87
2023-04-03T04:45:43.516Z,57.85
2023-04-03T04:48:10.406Z,57.63
2023-04-03T04:50:37.176Z,57.81
2023-04-03T04:53:05.120Z,57.81
2023-04-03T04:55:31.715Z,58.79
2023-04-03T04:57:58.507Z,57.81
2023-04-03T05:00:25.611Z,58.13
2023-04-03T05:02:52.435Z,57.36
2023-04-03T05:05:19.890Z,55.95
2023-04-03T05:07:47.145Z,56.74
2023-04-03T05:10:14.178Z,56.94
2023-04-03T05:12:41.614Z,56.79
2023-04-03T05:15:09.423Z,57.11
2023-04-03T05:17:36.365Z,57.09
2023-04-03T05:20:06.361Z,56.18
2023-04-03T05:22:34.351Z,56.93
2023-04-03T05:25:07.156Z,57.28
2023-04-03T05:27:33.747Z,57.00
2023-04-03T05:30:00.867Z,56.69
2023-04-03T05:32:28.498Z,57.20
2023-04-03T05:35:08.318Z,58.45
2023-04-03T05:37:36.557Z,57.93
2023-04-03T05:40:05.349Z,57.89
2023-04-03T05:42:32.580Z,58.15
2023-04-03T05:44:59.225Z,58.55
2023-04-03T05:47:25.847Z,58.04
2023-04-03T05:49:52.846Z,57.54
2023-04-03T05:52:30.319Z,57.80
2023-04-03T05:54:57.017Z,58.68
2023-04-03T05:57:26.981Z,57.92
2023-04-03T05:59:53.624Z,57.17
2023-04-03T06:02:24.033Z,57.40
2023-04-03T06:04:52.104Z,57.27
2023-04-03T06:07:23.551Z,58.09
2023-04-03T06:09:52.148Z,57.58
2023-04-03T06:12:20.034Z,57.29
2023-04-03T06:14:47.435Z,57.01
2023-04-03T06:17:16.251Z,57.56
2023-04-03T06:19:43.193Z,57.03
2023-04-03T06:22:10.065Z,57.64
2023-04-03T06:24:36.910Z,57.14
2023-04-03T06:27:03.608Z,57.89
2023-04-03T06:29:30.566Z,57.44
2023-04-03T06:31:57.717Z,57.74
2023-04-03T06:34:24.356Z,56.69
2023-04-03T06:36:51.573Z,55.04
2023-04-03T06:39:24.223Z,54.06
2023-04-03T06:41:52.074Z,53.99
2023-04-03T06:44:26.338Z,52.61
2023-04-03T06:46:53.512Z,51.46
2023-04-03T06:49:20.538Z,51.80
2023-04-03T06:51:47.234Z,51.75
2023-04-03T06:54:13.937Z,53.75
2023-04-03T06:56:40.588Z,53.49
2023-04-03T06:59:07.326Z,53.75
2023-04-03T07:01:34.440Z,54.67
2023-04-03T07:04:01.256Z,53.17
2023-04-03T07:06:28.029Z,52.99
2023-04-03T07:08:55.844Z,53.34
2023-04-03T07:11:23.304Z,53.17
2023-04-03T07:13:50.364Z,53.00
2023-04-03T07:16:16.942Z,52.88
2023-04-03T07:18:43.641Z,51.68
2023-04-03T07:21:10.340Z,50.37
2023-04-03T07:23:37.353Z,49.51
2023-04-03T07:26:04.251Z,47.93
2023-04-03T07:28:31.172Z,45.64
2023-04-03T07:31:08.178Z,46.87
2023-04-03T07:33:35.886Z,47.90
2023-04-03T07:36:03.213Z,48.99
2023-04-03T07:38:30.065Z,48.03
2023-04-03T07:40:56.607Z,47.28
2023-04-03T07:43:23.454Z,47.55
2023-04-03T07:45:51.764Z,48.50
2023-04-03T07:48:23.673Z,49.00
2023-04-03T07:50:50.790Z,45.87
2023-04-03T07:53:18.090Z,47.38
2023-04-03T07:55:47.625Z,47.91
2023-04-03T07:58:17.931Z,48.74
2023-04-03T08:00:46.270Z,47.86
2023-04-03T08:03:13.860Z,48.59
2023-04-03T08:05:42.450Z,50.12
2023-04-03T08:08:10.803Z,49.68
2023-04-03T08:10:37.884Z,50.04
2023-04-03T08:13:05.710Z,51.54
2023-04-03T08:15:32.756Z,50.89
2023-04-03T08:18:00.501Z,50.32
2023-04-03T08:20:27.837Z,50.92
2023-04-03T08:22:54.965Z,50.59
2023-04-03T08:25:21.995Z,50.68
2023-04-03T08:27:48.730Z,49.98
2023-04-03T08:30:15.387Z,49.19
2023-04-03T08:32:45.341Z,50.98
2023-04-03T08:35:12.540Z,48.27
2023-04-03T08:37:40.789Z,48.92
2023-04-03T08:40:13.814Z,52.73
2023-04-03T08:42:52.416Z,47.89
2023-04-03T08:45:32.521Z,49.42
2023-04-03T08:48:21.121Z,49.68
2023-04-03T08:50:53.278Z,49.68
2023-04-03T08:53:29.318Z,49.15
2023-04-03T08:55:56.828Z,48.98
2023-04-03T08:58:26.988Z,48.48
2023-04-03T09:01:07.246Z,47.12
2023-04-03T09:03:38.313Z,47.97
2023-04-03T09:06:11.216Z,48.04
2023-04-03T09:08:44.001Z,46.96
2023-04-03T09:11:11.053Z,45.75
2023-04-03T09:13:58.498Z,44.90
2023-04-03T09:16:33.450Z,45.78
2023-04-03T09:19:31.156Z,44.30
2023-04-03T09:21:59.279Z,44.33
2023-04-03T09:24:26.350Z,43.54
2023-04-03T09:27:04.563Z,41.81
2023-04-03T09:29:31.444Z,43.11
2023-04-03T09:32:01.726Z,41.53
2023-04-03T09:34:33.774Z,43.54
2023-04-03T09:37:06.799Z,40.96
2023-04-03T09:39:54.201Z,42.04
2023-04-03T09:42:26.168Z,39.75
2023-04-03T09:45:05.447Z,40.83
2023-04-03T09:47:37.173Z,41.24
2023-04-03T09:50:13.569Z,36.43
2023-04-03T09:52:41.832Z,37.43
2023-04-03T09:55:15.284Z,35.73
2023-04-03T09:57:42.519Z,40.09
2023-04-03T10:00:39.095Z,40.72
2023-04-03T10:03:25.571Z,37.50
2023-04-03T10:05:55.173Z,36.82
2023-04-03T10:08:24.914Z,37.35
2023-04-03T10:11:09.102Z,36.83
2023-04-03T10:13:41.988Z,37.57
2023-04-03T10:16:19.552Z,36.17
2023-04-03T10:18:56.569Z,37.54
2023-04-03T10:22:02.142Z,36.31
2023-04-03T10:24:47.122Z,34.86
2023-04-03T10:27:23.897Z,34.25
2023-04-03T10:30:04.680Z,37.03
2023-04-03T10:32:46.723Z,33.83
2023-04-03T10:35:28.435Z,32.59
2023-04-03T10:38:23.869Z,38.02
2023-04-03T10:41:05.326Z,36.58
2023-04-03T10:44:09.154Z,37.16
2023-04-03T10:46:45.016Z,33.24
2023-04-03T10:49:15.958Z,33.20
2023-04-03T10:52:01.644Z,36.05
2023-04-03T10:55:11.547Z,33.59
2023-04-03T10:57:38.671Z,35.21
2023-04-03T11:00:19.157Z,36.74
2023-04-03T11:02:56.364Z,33.16
2023-04-03T11:06:04.720Z,36.60
2023-04-03T11:08:49.304Z,35.10
2023-04-03T11:11:28.181Z,37.44
2023-04-03T11:14:04.242Z,35.11
2023-04-03T11:16:43.613Z,37.28
2023-04-03T11:19:28.247Z,38.30
2023-04-03T11:22:24.866Z,35.65
2023-04-03T11:25:03.449Z,36.94
2023-04-03T11:27:38.889Z,34.70
2023-04-03T11:30:07.326Z,36.73
2023-04-03T11:32:58.909Z,36.88
2023-04-03T11:35:27.360Z,41.12
2023-04-03T11:37:55.090Z,37.64
2023-04-03T11:40:33.977Z,39.12
2023-04-03T11:43:00.623Z,38.10
2023-04-03T11:45:40.176Z,39.97
2023-04-03T11:48:30.491Z,38.48
2023-04-03T11:50:57.617Z,38.76
2023-04-03T11:53:31.582Z,39.93
2023-04-03T11:56:28.503Z,40.25
2023-04-03T11:59:14.335Z,38.06
2023-04-03T12:01:50.081Z,39.04
2023-04-03T12:04:18.741Z,39.22
2023-04-03T12:06:49.817Z,39.06
2023-04-03T12:09:28.325Z,38.88
2023-04-03T12:11:57.403Z,37.86
2023-04-03T12:14:26.667Z,38.48
2023-04-03T12:16:58.394Z,37.82
2023-04-03T12:19:42.607Z,35.15
2023-04-03T12:22:16.784Z,34.67
2023-04-03T12:24:46.537Z,36.69
2023-04-03T12:27:30.775Z,35.92
2023-04-03T12:30:04.811Z,36.41
2023-04-03T12:32:41.217Z,35.84
2023-04-03T12:35:23.090Z,35.28
2023-04-03T12:38:35.825Z,37.53
2023-04-03T12:41:22.268Z,38.00
2023-04-03T12:43:56.944Z,36.76
2023-04-03T12:46:27.255Z,37.13
2023-04-03T12:48:59.284Z,35.43
2023-04-03T12:51:40.978Z,35.76
2023-04-03T12:54:25.687Z,34.93
2023-04-03T12:56:52.470Z,34.62
2023-04-03T12:59:27.602Z,35.83
2023-04-03T13:01:56.628Z,35.12
2023-04-03T13:04:24.616Z,37.15
2023-04-03T13:06:52.019Z,36.70
2023-04-03T13:09:31.656Z,39.04
2023-04-03T13:12:12.485Z,37.55
2023-04-03T13:14:40.070Z,37.43
2023-04-03T13:17:17.717Z,35.71
2023-04-03T13:19:46.891Z,36.17
2023-04-03T13:22:40.246Z,37.18
2023-04-03T13:25:10.431Z,37.16
2023-04-03T13:27:40.309Z,37.22
2023-04-03T13:30:20.660Z,36.88
2023-04-03T13:32:47.463Z,37.26
2023-04-03T13:35:33.110Z,38.67
2023-04-03T13:38:03.717Z,35.43
2023-04-03T13:40:37.964Z,35.17
2023-04-03T13:43:24.227Z,36.60
2023-04-03T13:45:59.641Z,38.38
2023-04-03T13:48:26.939Z,36.11
2023-04-03T13:51:13.127Z,39.19
2023-04-03T13:54:01.049Z,36.64
2023-04-03T13:56:38.581Z,34.99
2023-04-03T13:59:17.365Z,37.83
2023-04-03T14:01:50.510Z,36.81
2023-04-03T14:04:29.432Z,35.48
2023-04-03T14:06:56.763Z,36.49
2023-04-03T14:09:26.964Z,39.16
2023-04-03T14:11:58.124Z,36.39
2023-04-03T14:14:30.831Z,35.43
2023-04-03T14:17:00.990Z,36.78
2023-04-03T14:19:34.573Z,36.01
2023-04-03T14:22:23.222Z,36.94
2023-04-03T14:24:51.519Z,36.88
2023-04-03T14:27:20.171Z,36.72
2023-04-03T14:29:48.737Z,37.78
2023-04-03T14:32:17.582Z,36.84
2023-04-03T14:34:46.009Z,36.74
2023-04-03T14:37:20.192Z,37.70
2023-04-03T14:39:47.427Z,37.03
2023-04-03T14:42:17.819Z,35.68
2023-04-03T14:44:45.307Z,38.50
2023-04-03T14:47:23.269Z,37.84
2023-04-03T14:49:57.085Z,38.99
2023-04-03T14:52:28.102Z,37.33
2023-04-03T14:54:55.289Z,36.74
2023-04-03T14:57:25.948Z,38.43
2023-04-03T14:59:53.016Z,37.77
2023-04-03T15:02:30.589Z,38.40
2023-04-03T15:04:58.618Z,38.74
2023-04-03T15:07:27.744Z,36.96
2023-04-03T15:09:56.996Z,38.55
2023-04-03T15:12:25.169Z,38.00
2023-04-03T15:15:01.062Z,36.65
2023-04-03T15:17:28.542Z,39.39
2023-04-03T15:19:55.089Z,38.29
2023-04-03T15:22:21.789Z,36.01
2023-04-03T15:24:48.383Z,37.42
2023-04-03T15:27:16.235Z,38.40
2023-04-03T15:29:44.157Z,39.19
2023-04-03T15:32:11.567Z,38.61
2023-04-03T15:34:38.956Z,37.38
2023-04-03T15:37:06.398Z,37.19
2023-04-03T15:39:32.931Z,35.64
2023-04-03T15:42:06.847Z,38.43
2023-04-03T15:44:35.360Z,39.56
2023-04-03T15:47:02.581Z,36.88
2023-04-03T15:49:29.559Z,37.09
2023-04-03T15:51:56.273Z,36.98
2023-04-03T15:54:24.784Z,36.63
2023-04-03T15:56:51.524Z,37.10
2023-04-03T15:59:18.546Z,35.79
2023-04-03T16:01:45.637Z,37.55
2023-04-03T16:04:13.365Z,37.67
2023-04-03T16:06:41.999Z,37.16
2023-04-03T16:09:10.650Z,37.07
2023-04-03T16:11:39.936Z,36.83
2023-04-03T16:14:08.116Z,38.12
2023-04-03T16:16:34.814Z,37.36
2023-04-03T16:19:01.582Z,36.09
2023-04-03T16:21:29.146Z,36.34
2023-04-03T16:23:58.775Z,36.23
2023-04-03T16:26:26.157Z,37.32
2023-04-03T16:28:53.517Z,37.65
2023-04-03T16:31:20.972Z,35.83
2023-04-03T16:33:47.615Z,35.78
2023-04-03T16:36:14.337Z,37.50
2023-04-03T16:38:41.144Z,37.10
2023-04-03T16:41:07.700Z,36.52
2023-04-03T16:43:34.611Z,36.67
2023-04-03T16:46:03.032Z,36.62
2023-04-03T16:48:31.592Z,36.64
2023-04-03T16:50:58.307Z,36.73
2023-04-03T16:53:26.248Z,37.18
2023-04-03T16:55:53.138Z,37.65
2023-04-03T16:58:21.670Z,37.26
2023-04-03T17:00:49.081Z,35.95
2023-04-03T17:03:15.696Z,35.82
2023-04-03T17:05:42.306Z,35.57
2023-04-03T17:08:08.933Z,36.18
2023-04-03T17:10:36.340Z,37.86
2023-04-03T17:13:03.039Z,36.67
2023-04-03T17:15:29.527Z,36.59
2023-04-03T17:17:56.248Z,36.36
2023-04-03T17:20:23.148Z,36.76
2023-04-03T17:22:49.714Z,36.38
2023-04-03T17:25:16.599Z,37.21
2023-04-03T17:27:43.347Z,37.13
2023-04-03T17:30:10.611Z,36.73
2023-04-03T17:32:38.352Z,37.42
2023-04-03T17:35:05.467Z,37.12
2023-04-03T17:37:32.013Z,36.87
2023-04-03T17:39:58.565Z,37.15
2023-04-03T17:42:25.248Z,36.79
2023-04-03T17:44:51.824Z,36.72
2023-04-03T17:47:18.479Z,37.70
2023-04-03T17:49:45.084Z,38.18
2023-04-03T17:52:11.643Z,37.96
2023-04-03T17:54:38.190Z,37.76
2023-04-03T17:57:05.572Z,37.89
2023-04-03T17:59:32.673Z,38.32
2023-04-03T18:01:59.315Z,37.19
2023-04-03T18:04:26.003Z,38.21
2023-04-03T18:06:55.058Z,38.06
2023-04-03T18:09:32.410Z,38.46
2023-04-03T18:12:02.393Z,38.00
2023-04-03T18:14:29.386Z,38.70
2023-04-03T18:16:59.026Z,38.32
2023-04-03T18:19:27.777Z,38.75
2023-04-03T18:22:00.360Z,38.78
2023-04-03T18:24:27.408Z,38.75
2023-04-03T18:27:00.633Z,39.06
2023-04-03T18:29:30.799Z,39.21
2023-04-03T18:31:58.796Z,39.60
2023-04-03T18:34:25.622Z,39.83
2023-04-03T18:36:52.465Z,39.21
2023-04-03T18:39:19.297Z,39.88
2023-04-03T18:41:46.678Z,39.51
2023-04-03T18:44:18.396Z,40.41
2023-04-03T18:46:45.856Z,41.01
2023-04-03T18:49:13.565Z,40.28
2023-04-03T18:51:40.904Z,40.92
2023-04-03T18:54:09.582Z,41.36
2023-04-03T18:56:37.272Z,40.31
2023-04-03T18:59:04.583Z,40.49
2023-04-03T19:01:31.777Z,40.73
2023-04-03T19:03:58.517Z,41.47
2023-04-03T19:06:25.149Z,41.55
2023-04-03T19:08:51.890Z,41.69
2023-04-03T19:11:18.442Z,42.30
2023-04-03T19:13:46.841Z,41.73
2023-04-03T19:16:30.781Z,40.89
2023-04-03T19:18:57.373Z,39.65
2023-04-03T19:21:23.931Z,40.73
2023-04-03T19:23:50.635Z,41.09
2023-04-03T19:26:17.247Z,41.52
2023-04-03T19:28:44.027Z,41.20
2023-04-03T19:31:13.888Z,42.60
2023-04-03T19:33:44.048Z,42.87
2023-04-03T19:36:11.469Z,41.36
2023-04-03T19:38:38.602Z,40.50
2023-04-03T19:41:22.570Z,41.92
2023-04-03T19:43:51.420Z,43.72
2023-04-03T19:46:21.506Z,43.72
2023-04-03T19:48:48.197Z,43.33
2023-04-03T19:51:14.756Z,42.59
2023-04-03T19:53:41.547Z,42.69
2023-04-03T19:56:08.144Z,42.91
2023-04-03T19:58:34.792Z,43.64
2023-04-03T20:01:01.445Z,44.19
2023-04-03T20:03:28.058Z,44.77
2023-04-03T20:05:57.594Z,44.05
2023-04-03T20:08:26.187Z,44.27
2023-04-03T20:10:52.726Z,43.17
2023-04-03T20:13:19.555Z,43.08
2023-04-03T20:15:46.097Z,44.47
2023-04-03T20:18:17.632Z,44.27
2023-04-03T20:20:59.290Z,43.70
2023-04-03T20:23:27.097Z,43.11
2023-04-03T20:26:06.607Z,44.20
2023-04-03T20:28:37.917Z,44.54
2023-04-03T20:31:04.931Z,43.81
2023-04-03T20:33:31.487Z,44.06
2023-04-03T20:35:58.429Z,43.49
2023-04-03T20:38:25.353Z,44.71
2023-04-03T20:40:52.231Z,43.72
2023-04-03T20:43:19.344Z,43.31
2023-04-03T20:45:46.019Z,44.27
2023-04-03T20:48:13.153Z,43.27
2023-04-03T20:50:41.080Z,42.81
2023-04-03T20:53:08.211Z,42.69
2023-04-03T20:55:35.135Z,42.72
2023-04-03T20:58:02.098Z,43.90
2023-04-03T21:00:31.522Z,44.35
2023-04-03T21:02:59.508Z,44.27
2023-04-03T21:05:28.957Z,44.60
2023-04-03T21:08:34.868Z,44.25
2023-04-03T21:11:39.300Z,43.94
2023-04-03T21:14:44.411Z,43.09
2023-04-03T21:17:10.960Z,42.89
2023-04-03T21:19:45.376Z,42.78
2023-04-03T21:22:13.528Z,43.77
2023-04-03T21:24:40.223Z,43.68
2023-04-03T21:27:06.792Z,43.76
2023-04-03T21:29:33.455Z,42.43
2023-04-03T21:32:01.508Z,43.85
2023-04-03T21:34:29.988Z,44.21
2023-04-03T21:37:01.217Z,43.73
2023-04-03T21:39:28.189Z,44.13
2023-04-03T21:41:54.855Z,43.72
2023-04-03T21:44:22.548Z,43.28
2023-04-03T21:46:53.637Z,44.75
2023-04-03T21:49:25.215Z,44.63
2023-04-03T21:51:52.362Z,44.41
2023-04-03T21:54:19.730Z,45.20
2023-04-03T21:56:48.033Z,45.08
2023-04-03T21:59:15.724Z,44.84
2023-04-03T22:01:42.921Z,44.08
2023-04-03T22:04:09.649Z,44.10
2023-04-03T22:06:37.546Z,45.00
2023-04-03T22:09:04.272Z,45.88
2023-04-03T22:11:31.093Z,45.97
2023-04-03T22:13:57.683Z,45.22
2023-04-03T22:16:24.495Z,45.73
2023-04-03T22:18:54.621Z,45.44
2023-04-03T22:21:21.925Z,44.64
2023-04-03T22:23:48.448Z,44.95
2023-04-03T22:26:15.173Z,44.37
2023-04-03T22:28:43.803Z,44.58
2023-04-03T22:31:14.100Z,44.43
2023-04-03T22:33:42.208Z,46.36
2023-04-03T22:36:10.676Z,44.70
2023-04-03T22:38:38.865Z,44.80
2023-04-03T22:41:07.740Z,45.09
2023-04-03T22:43:36.538Z,44.32
2023-04-03T22:46:05.436Z,44.87
2023-04-03T22:48:33.284Z,45.22
2023-04-03T22:51:01.009Z,46.36
2023-04-03T22:53:30.739Z,46.75
2023-04-03T22:55:58.535Z,46.43
2023-04-03T22:58:28.655Z,45.97
2023-04-03T23:01:09.730Z,46.65
2023-04-03T23:03:38.770Z,45.67
2023-04-03T23:06:06.667Z,45.34
2023-04-03T23:08:34.923Z,45.23
2023-04-03T23:11:02.090Z,44.68
2023-04-03T23:13:28.689Z,44.53
2023-04-03T23:16:00.681Z,44.35
2023-04-03T23:18:29.911Z,45.49
2023-04-03T23:20:58.519Z,44.69
2023-04-03T23:23:25.359Z,44.84
2023-04-03T23:25:53.009Z,45.82
2023-04-03T23:28:19.680Z,45.60
2023-04-03T23:30:46.706Z,45.95
2023-04-03T23:33:13.355Z,45.56
2023-04-03T23:35:48.240Z,46.39
2023-04-03T23:38:16.102Z,47.07
2023-04-03T23:40:43.163Z,47.85
2023-04-03T23:43:10.063Z,48.44
2023-04-03T23:45:37.237Z,46.86
2023-04-03T23:48:04.442Z,46.28
2023-04-03T23:50:31.100Z,47.08
2023-04-03T23:52:57.754Z,47.25
2023-04-03T23:55:24.324Z,47.99
2023-04-03T23:57:50.867Z,46.91
